• Join FlightAware (Why Join?)
  • Login
  • US Flag 
01:04AM EDT


 

Airport Tracker/Info


-or-


 

Live Flight TrackerFlight Track Log ✈ CTL15 ✈ 16-Apr-2013 ✈ KMGY - KBKL

Flight Track Log - Related Links

Times and Time Zones

All times are in EDT time to prevent confusion due to time zone crossing. See the CTL15 flight status page for this flight to view local times or setup timezone preferences in your user account.

Time Position Orientation Groundspeed Altitude Reporting Facility
EDT Latitude Longitude Course Direction KTS MPH feet Rate Location/Type
07:55PM 39.6200 -84.1883 52° Northeast 121 139 2,100  Level Indianapolis Center
07:56PM 39.6442 -84.1481 52° Northeast 143 165 3,000 480 Climbing Indianapolis Center
07:57PM 39.6744 -84.1033 49° Northeast 152 175 3,100 120 Climbing Indianapolis Center
07:58PM 39.7086 -84.0481 51° Northeast 197 227 3,300 300 Climbing Indianapolis Center
07:59PM 39.7514 -83.9831 49° Northeast 185 213 3,900 480 Climbing Indianapolis Center
08:00PM 39.7769 -83.9461 48° Northeast 184 212 4,400 660 Climbing Indianapolis Center
08:01PM 39.8083 -83.8953 51° Northeast 181 208 5,100 540 Climbing Indianapolis Center
08:02PM 39.8403 -83.8453 50° Northeast 179 206 5,500 360 Climbing Indianapolis Center
08:03PM 39.8781 -83.8022 41° Northeast 178 205 5,900 360 Climbing Indianapolis Center
08:04PM 39.9156 -83.7564 43° Northeast 180 207 6,300 480 Climbing Indianapolis Center
08:05PM 39.9519 -83.7131 42° Northeast 178 205 6,900 300 Climbing Indianapolis Center
08:06PM 39.9864 -83.6683 45° Northeast 173 199 7,000  Climbing Indianapolis Center
08:07PM 40.0267 -83.6217 42° Northeast 182 209 7,000  Level Indianapolis Center
08:08PM 40.0681 -83.5711 43° Northeast 194 223 7,000  Level Indianapolis Center
08:09PM 40.1153 -83.5147 42° Northeast 201 231 7,000  Level Indianapolis Center
08:10PM 40.1583 -83.4683 39° Northeast 203 234 7,000  Level Indianapolis Center
08:11PM 40.1969 -83.4214 43° Northeast 205 236 7,000  Level Indianapolis Center
08:12PM 40.2383 -83.3703 43° Northeast 203 234 7,000  Level Indianapolis Center
08:13PM 40.2800 -83.3206 42° Northeast 202 232 7,000  Level Indianapolis Center
08:14PM 40.3194 -83.2708 44° Northeast 197 227 7,000  Level Indianapolis Center
08:15PM 40.3603 -83.2222 42° Northeast 197 227 7,000  Level Indianapolis Center
08:16PM 40.3983 -83.1744 44° Northeast 196 226 7,000  Level Indianapolis Center
08:17PM 40.4386 -83.1256 43° Northeast 195 224 7,000  Level Indianapolis Center
08:18PM 40.4806 -83.0733 43° Northeast 198 228 7,000  Level Indianapolis Center
08:19PM 40.5258 -83.0172 43° Northeast 198 228 7,000  Level Indianapolis Center
08:20PM 40.5661 -82.9683 43° Northeast 195 224 7,000  Level Indianapolis Center
08:21PM 40.6061 -82.9192 43° Northeast 195 224 7,000  Level Indianapolis Center
08:22PM 40.6475 -82.8711 41° Northeast 196 226 7,000  Level Indianapolis Center
08:23PM 40.6867 -82.8203 45° Northeast 196 226 7,000  Level Indianapolis Center
08:24PM 40.7244 -82.7714 44° Northeast 193 222 7,000  Level Indianapolis Center
08:25PM 40.7650 -82.7222 43° Northeast 193 222 7,000  Level Indianapolis Center
08:26PM 40.7747 -82.7081 48° Northeast 193 222 7,000  Level Cleveland Center
08:26PM 40.8092 -82.6625 45° Northeast 192 221 7,000  Level Cleveland Center
08:27PM 40.8494 -82.6144 42° Northeast 190 219 7,000  Level Cleveland Center
08:28PM 40.8900 -82.5633 44° Northeast 188 216 7,000  Level Cleveland Center
08:30PM 40.9306 -82.5097 45° Northeast 190 219 7,000  Level Cleveland Center
08:31PM 40.9689 -82.4642 42° Northeast 191 220 7,000  Level Cleveland Center
08:32PM 41.0133 -82.4186 38° Northeast 199 229 7,000  Level Cleveland Center
08:33PM 41.0578 -82.3814 32° Northeast 191 220 7,000  Level Cleveland Center
08:34PM 41.1019 -82.3467 31° Northeast 197 227 7,100 -180 Climbing Cleveland Center
08:34PM 41.1444 -82.3092 34° Northeast 202 232 6,700 -540 Descending Cleveland Center
08:36PM 41.1992 -82.2664 30° Northeast 212 244 6,100 -540 Descending Cleveland Center
08:37PM 41.2561 -82.2319 24° Northeast 207 238 5,600 -540 Descending Cleveland Center
08:37PM 41.3022 -82.2056 23° Northeast 205 236 5,100 -540 Descending Cleveland Center
08:38PM 41.3547 -82.1764 23° Northeast 200 230 4,600 -480 Descending Cleveland Center
08:39PM 41.4011 -82.1389 31° Northeast 193 222 4,200 -300 Descending Cleveland Center
08:40PM 41.4475 -82.1011 31° Northeast 187 215 4,000 -360 Descending Cleveland Center
08:41PM 41.4814 -82.0494 49° Northeast 192 221 3,500 -480 Descending Cleveland Center
08:43PM 41.5094 -81.9917 57° Northeast 193 222 3,100 -480 Descending Cleveland Center
08:44PM 41.5206 -81.9253 77° East 190 219 2,600 -480 Descending Cleveland Center
08:45PM 41.5153 -81.8367 95° East 190 219 2,100 -600 Descending Cleveland Center
08:46PM 41.5036 -81.7697 103° East 178 205 1,400 -600 Descending Cleveland Center
08:47PM 41.5019 -81.7144 92° East 131 151 1,000 -420 Descending Cleveland Center
08:49PM 41.5175 -81.6833 48° Northeast  Level Estimated